Weather observations for the past three days for
Philip, Philip Airport
Imperial (Metric)
Date Time (mdt) Wind (mph) Vis. (mi.) Weather Sky Cond. Temperature (ºF) Relative Humidity Wind Chill (°F) Heat Index (°F) Pressure Precipitation (in)
Air Dwpt 6 hour altimeter (in) sea level (mb) 1 hr 3 hr 6 hr
Max. Min.
31 05:55 W 6 10.00 Fair CLR 51.1 48 57.9 51.1 89% 29.97 1013.0
31 04:55 W 7 10.00 Fair CLR 52 48 86% 29.96 1012.4
31 03:55 W 6 10.00 Fair CLR 52 48 86% 29.95 1012.3
31 02:55 W 6 10.00 Fair CLR 53.1 48.9 86% 29.95 1012.3
31 01:55 SW 3 10.00 Fair CLR 54 48.9 83% 29.95 1012.2
31 00:55 SW 5 10.00 Fair CLR 55 48.9 80% 29.95 1012.5
30 23:55 W 6 10.00 A Few Clouds FEW110 57.9 51.1 93 57.9 78% 29.95 1012.1
30 22:55 NW 7 10.00 Fair CLR 60.1 52 75% 29.93 1011.7
30 21:55 NW 6 10.00 Fair CLR 62.1 52 70% 29.93 1011.5
30 20:55 N 15 G 28 10.00 Fair CLR 64 52 65% 29.89 1010.5
30 19:55 NW 28 G 41 10.00 Fair and Windy CLR 66 52 61% 29.84 1008.6
30 18:55 NW 37 G 53 10.00 Fair and Windy CLR 73 55 53% 29.76 1005.9
30 17:55 S 7 10.00 Fair CLR 93 50 97 87.1 23% 90 29.71 1003.7
30 16:55 W 10 10.00 Fair CLR 96.1 50 21% 93 29.72 1003.7
30 15:55 SW 13 G 20 10.00 Fair CLR 95 50 22% 92 29.71 1003.5
30 14:55 SW 13 G 17 10.00 Fair CLR 93.9 57 29% 93 29.73 1004.0
30 13:55 SW 13 G 18 10.00 Fair CLR 93 59 32% 92 29.74 1004.4
30 12:55 W 6 10.00 Fair CLR 89.1 62.1 41% 89 29.74 1004.5
30 11:55 NW 12 10.00 Fair CLR 88 63 88 64 43% 89 29.77 1005.3
30 10:55 W 13 10.00 Fair CLR 84.9 64 50% 86 29.78 1006.2
30 09:55 W 13 10.00 Fair CLR 81 64 57% 83 29.78 1006.0
30 08:55 W 13 10.00 Fair CLR 75.9 64 67% 78 29.77 1005.9
30 07:55 W 12 10.00 Fair CLR 71.1 61 71% 29.78 1006.1
30 06:55 W 7 10.00 Fair CLR 66.9 54 63% 29.77 1005.7
30 05:55 SW 7 10.00 Fair CLR 64.9 52 77 64.9 63% 29.75 1004.8
30 04:55 W 3 10.00 Fair CLR 66.9 53.1 61% 29.74 1004.5
30 03:55 SW 13 10.00 Fair CLR 72 53.1 52% 29.73 1004.1
30 02:55 SW 14 10.00 Fair CLR 72 55 55% 29.73 1004.2
30 01:55 SW 9 10.00 Fair CLR 73.9 55.9 54% 29.73 1003.9
30 00:55 SW 7 10.00 Fair CLR 73 55.9 55% 29.73 1004.1
29 23:55 SW 14 10.00 Fair CLR 77 55.9 93 71.1 48% 79 29.74 1004.5
29 22:55 Calm 10.00 Fair CLR 72 54 53% 29.75 1004.7
29 21:55 SW 7 10.00 Fair CLR 75 54 48% 78 29.74 1004.8
29 20:55 SW 3 10.00 Fair CLR 80.1 54 41% 80 29.75 1005.1
29 19:55 SW 10 G 17 10.00 Fair CLR 84.9 61 45% 85 29.73 1004.4
29 18:55 E 7 10.00 Fair CLR 87.1 59 39% 86 29.71 1003.9
29 17:55 SE 5 10.00 Fair CLR 93 57 96.1 89.1 30% 92 29.72 1004.0
29 16:55 Calm 10.00 Fair CLR 95 55.9 27% 93 29.73 1004.2
29 15:55 S 8 10.00 Fair CLR 95 57.9 29% 94 29.73 1004.2
29 14:55 Vrbl 3 10.00 Fair CLR 93.9 59 31% 93 29.76 1005.1
29 13:55 S 7 10.00 Fair CLR 93 62.1 36% 94 29.78 1005.7
29 12:55 SW 8 10.00 Fair CLR 91 61 37% 91 29.79 1006.2
29 11:55 Vrbl 6 10.00 Fair CLR 91 63 91 66.9 39% 92 29.8 1006.4
29 10:55 N 6 10.00 Fair CLR 89.1 62.1 41% 89 29.81 1007.0
29 09:55 W 8 10.00 Fair CLR 84 63 49% 85 29.83 1007.5
29 08:55 NW 13 10.00 Fair CLR 79 63 58% 81 29.84 1008.2
29 07:55 W 10 10.00 Fair CLR 73 64 74% 29.84 1008.1
29 06:55 W 5 10.00 Fair CLR 66.9 63 87% 29.82 1007.2
29 05:55 NW 6 10.00 Fair CLR 66.9 63 75 66.9 87% 29.8 1006.4
29 04:55 W 6 10.00 Fair CLR 68 63 84% 29.82 1007.1
29 03:55 W 3 10.00 Fair CLR 69.1 64 84% 29.8 1006.5
29 02:55 NW 6 10.00 Fair CLR 70 64 82% 29.79 1006.0
29 01:55 W 9 10.00 Fair CLR 72 64 76% 29.81 1006.6
29 00:55 W 8 10.00 Fair CLR 72 64.9 79% 29.8 1006.6
28 23:55 NW 6 10.00 Fair CLR 73.9 64.9 96.1 73.9 74% 29.78 1005.9
28 22:55 NW 8 10.00 Fair CLR 75.9 66 72% 77 29.79 1006.1
28 21:55 N 8 10.00 Fair CLR 81 66 61% 83 29.78 1005.8
28 20:55 N 9 10.00 Fair CLR 81 66.9 62% 83 29.78 1006.2
28 19:55 N 5 10.00 Fair CLR 84 68 59% 87 29.77 1006.0
28 18:55 E 10 10.00 Fair CLR 90 69.1 50% 95 29.75 1005.2
28 17:55 SE 9 10.00 Fair CLR 96.1 63 100 90 34% 98 29.75 1005.1
28 16:55 SE 6 10.00 Fair CLR 97 60.1 29% 97 29.76 1005.3
28 15:55 S 8 10.00 Fair CLR 99 61 29% 100 29.77 1005.8
28 14:55 SE 14 G 23 10.00 Fair CLR 99 57 25% 98 29.79 1006.5
28 13:55 S 7 G 18 10.00 Fair CLR 96.1 59 29% 96 29.82 1007.4
28 12:55 S 9 10.00 Fair CLR 93.9 61 33% 94 29.84 1008.2
28 11:55 S 10 10.00 Fair CLR 90 61 91 61 38% 90 29.88 1009.7
28 10:55 S 9 10.00 Fair CLR 86 61 43% 86 29.9 1010.5
28 09:55 S 13 10.00 Fair CLR 82 61 49% 83 29.91 1011.0
28 08:55 S 12 10.00 Fair CLR 75 60.1 60% 77 29.92 1011.4
28 07:55 SE 8 10.00 Fair CLR 66.9 57 71% 29.95 1012.3
28 06:55 E 10 10.00 Fair CLR 63 57 81% 29.96 1012.8
Date Time (mdt) Wind (mph) Vis. (mi.) Weather Sky Cond. Air Dwpt Max. Min. Relative Humidity Wind Chill (°F) Heat Index (°F) altimeter (in) sea level (mb) 1 hr 3 hr 6 hr
6 hour
Temperature (ºF) Pressure Precipitation (in)